sensor_id;sensor_type;location;lat;lon;timestamp;P1;durP1;ratioP1;P2;durP2;ratioP2
46282;SDS011;32017;43.700;11.820;2022-11-14T00:00:52;18.15;;;16.85;;
46282;SDS011;32017;43.700;11.820;2022-11-14T00:03:12;17.30;;;15.93;;
46282;SDS011;32017;43.700;11.820;2022-11-14T00:05:32;136.93;;;28.00;;
46282;SDS011;32017;43.700;11.820;2022-11-14T00:07:56;284.92;;;30.52;;
46282;SDS011;32017;43.700;11.820;2022-11-14T00:10:16;30.25;;;20.33;;
46282;SDS011;32017;43.700;11.820;2022-11-14T00:12:36;38.10;;;18.58;;
46282;SDS011;32017;43.700;11.820;2022-11-14T00:14:56;49.30;;;18.02;;
46282;SDS011;32017;43.700;11.820;2022-11-14T00:17:15;15.68;;;14.40;;
46282;SDS011;32017;43.700;11.820;2022-11-14T00:19:34;101.80;;;17.88;;
46282;SDS011;32017;43.700;11.820;2022-11-14T00:21:54;80.38;;;19.73;;
46282;SDS011;32017;43.700;11.820;2022-11-14T00:24:13;46.28;;;20.60;;
46282;SDS011;32017;43.700;11.820;2022-11-14T00:26:33;20.67;;;18.88;;
46282;SDS011;32017;43.700;11.820;2022-11-14T00:28:53;264.20;;;30.58;;
46282;SDS011;32017;43.700;11.820;2022-11-14T00:31:13;102.05;;;27.17;;
46282;SDS011;32017;43.700;11.820;2022-11-14T00:33:33;41.72;;;22.20;;
46282;SDS011;32017;43.700;11.820;2022-11-14T00:35:54;23.40;;;21.10;;
46282;SDS011;32017;43.700;11.820;2022-11-14T00:38:14;22.08;;;19.50;;
46282;SDS011;32017;43.700;11.820;2022-11-14T00:40:34;30.75;;;22.98;;
46282;SDS011;32017;43.700;11.820;2022-11-14T00:42:54;24.85;;;21.05;;
46282;SDS011;32017;43.700;11.820;2022-11-14T00:45:14;195.02;;;25.75;;
46282;SDS011;32017;43.700;11.820;2022-11-14T00:47:33;86.43;;;21.30;;
46282;SDS011;32017;43.700;11.820;2022-11-14T00:49:53;140.57;;;23.27;;
46282;SDS011;32017;43.700;11.820;2022-11-14T00:52:13;178.45;;;22.30;;
46282;SDS011;32017;43.700;11.820;2022-11-14T00:54:32;123.00;;;22.42;;
46282;SDS011;32017;43.700;11.820;2022-11-14T00:56:52;108.22;;;20.40;;
46282;SDS011;32017;43.700;11.820;2022-11-14T00:59:12;100.13;;;20.05;;
46282;SDS011;32017;43.700;11.820;2022-11-14T01:01:31;41.97;;;20.17;;
46282;SDS011;32017;43.700;11.820;2022-11-14T01:03:51;104.57;;;20.10;;
46282;SDS011;32017;43.700;11.820;2022-11-14T01:06:11;32.95;;;18.35;;
46282;SDS011;32017;43.700;11.820;2022-11-14T01:08:32;36.55;;;17.90;;
46282;SDS011;32017;43.700;11.820;2022-11-14T01:10:52;146.80;;;19.63;;
46282;SDS011;32017;43.700;11.820;2022-11-14T01:13:13;122.97;;;16.52;;
46282;SDS011;32017;43.700;11.820;2022-11-14T01:15:37;23.95;;;14.10;;
46282;SDS011;32017;43.700;11.820;2022-11-14T01:20:30;111.80;;;15.63;;
46282;SDS011;32017;43.700;11.820;2022-11-14T01:22:50;78.78;;;13.52;;
46282;SDS011;32017;43.700;11.820;2022-11-14T01:25:10;15.27;;;14.27;;
46282;SDS011;32017;43.700;11.820;2022-11-14T01:27:30;16.00;;;14.40;;
46282;SDS011;32017;43.700;11.820;2022-11-14T01:29:50;16.33;;;14.93;;
46282;SDS011;32017;43.700;11.820;2022-11-14T01:32:09;14.75;;;13.75;;
46282;SDS011;32017;43.700;11.820;2022-11-14T01:34:29;15.32;;;14.32;;
46282;SDS011;32017;43.700;11.820;2022-11-14T01:36:49;14.27;;;13.30;;
46282;SDS011;32017;43.700;11.820;2022-11-14T01:39:08;17.70;;;14.52;;
46282;SDS011;32017;43.700;11.820;2022-11-14T01:41:28;292.75;;;26.38;;
46282;SDS011;32017;43.700;11.820;2022-11-14T01:43:48;21.08;;;16.10;;
46282;SDS011;32017;43.700;11.820;2022-11-14T01:51:11;12.63;;;12.20;;
46282;SDS011;32017;43.700;11.820;2022-11-14T01:53:34;12.05;;;11.45;;
46282;SDS011;32017;43.700;11.820;2022-11-14T01:55:55;33.33;;;14.02;;
46282;SDS011;32017;43.700;11.820;2022-11-14T01:58:17;25.48;;;15.65;;
46282;SDS011;32017;43.700;11.820;2022-11-14T02:00:38;88.10;;;16.95;;
46282;SDS011;32017;43.700;11.820;2022-11-14T02:02:58;21.02;;;14.95;;
46282;SDS011;32017;43.700;11.820;2022-11-14T02:05:19;173.98;;;21.45;;
46282;SDS011;32017;43.700;11.820;2022-11-14T02:07:40;155.85;;;21.63;;
46282;SDS011;32017;43.700;11.820;2022-11-14T02:10:03;179.85;;;20.20;;
46282;SDS011;32017;43.700;11.820;2022-11-14T02:12:28;28.60;;;15.30;;
46282;SDS011;32017;43.700;11.820;2022-11-14T02:14:49;54.53;;;14.75;;
46282;SDS011;32017;43.700;11.820;2022-11-14T02:17:13;13.13;;;11.85;;
46282;SDS011;32017;43.700;11.820;2022-11-14T02:19:50;12.57;;;12.07;;
46282;SDS011;32017;43.700;11.820;2022-11-14T02:22:23;14.00;;;12.88;;
46282;SDS011;32017;43.700;11.820;2022-11-14T02:24:43;34.15;;;15.57;;
46282;SDS011;32017;43.700;11.820;2022-11-14T02:27:04;44.42;;;17.20;;
46282;SDS011;32017;43.700;11.820;2022-11-14T02:29:25;141.20;;;21.17;;
46282;SDS011;32017;43.700;11.820;2022-11-14T02:31:44;71.18;;;18.33;;
46282;SDS011;32017;43.700;11.820;2022-11-14T02:34:04;15.65;;;14.60;;
46282;SDS011;32017;43.700;11.820;2022-11-14T02:36:24;15.38;;;14.50;;
46282;SDS011;32017;43.700;11.820;2022-11-14T02:38:44;14.05;;;13.45;;
46282;SDS011;32017;43.700;11.820;2022-11-14T02:41:04;15.05;;;14.45;;
46282;SDS011;32017;43.700;11.820;2022-11-14T02:43:23;12.15;;;11.65;;
46282;SDS011;32017;43.700;11.820;2022-11-14T02:45:43;13.02;;;12.43;;
46282;SDS011;32017;43.700;11.820;2022-11-14T02:48:03;15.43;;;14.32;;
46282;SDS011;32017;43.700;11.820;2022-11-14T02:50:23;14.10;;;13.40;;
46282;SDS011;32017;43.700;11.820;2022-11-14T02:52:43;44.05;;;16.40;;
46282;SDS011;32017;43.700;11.820;2022-11-14T02:55:03;16.48;;;15.63;;
46282;SDS011;32017;43.700;11.820;2022-11-14T02:57:24;15.20;;;14.45;;
46282;SDS011;32017;43.700;11.820;2022-11-14T02:59:43;15.15;;;14.15;;
46282;SDS011;32017;43.700;11.820;2022-11-14T03:02:03;13.68;;;12.98;;
46282;SDS011;32017;43.700;11.820;2022-11-14T03:04:23;12.90;;;12.50;;
46282;SDS011;32017;43.700;11.820;2022-11-14T03:06:43;12.95;;;12.40;;
46282;SDS011;32017;43.700;11.820;2022-11-14T03:09:03;10.32;;;9.90;;
46282;SDS011;32017;43.700;11.820;2022-11-14T03:11:22;11.90;;;11.20;;
46282;SDS011;32017;43.700;11.820;2022-11-14T03:13:42;10.85;;;10.45;;
46282;SDS011;32017;43.700;11.820;2022-11-14T03:16:06;13.82;;;12.90;;
46282;SDS011;32017;43.700;11.820;2022-11-14T03:18:28;10.25;;;9.52;;
46282;SDS011;32017;43.700;11.820;2022-11-14T03:20:48;9.50;;;9.20;;
46282;SDS011;32017;43.700;11.820;2022-11-14T03:23:07;11.25;;;10.95;;
46282;SDS011;32017;43.700;11.820;2022-11-14T03:25:28;9.18;;;8.77;;
46282;SDS011;32017;43.700;11.820;2022-11-14T03:27:47;13.18;;;12.23;;
46282;SDS011;32017;43.700;11.820;2022-11-14T03:30:07;11.48;;;10.88;;
46282;SDS011;32017;43.700;11.820;2022-11-14T03:32:27;11.63;;;11.15;;
46282;SDS011;32017;43.700;11.820;2022-11-14T03:34:47;43.50;;;11.93;;
46282;SDS011;32017;43.700;11.820;2022-11-14T03:37:07;89.72;;;16.23;;
46282;SDS011;32017;43.700;11.820;2022-11-14T03:39:27;130.40;;;17.05;;
46282;SDS011;32017;43.700;11.820;2022-11-14T03:41:47;65.57;;;15.25;;
46282;SDS011;32017;43.700;11.820;2022-11-14T03:44:06;15.07;;;12.68;;
46282;SDS011;32017;43.700;11.820;2022-11-14T03:46:27;11.95;;;11.45;;
46282;SDS011;32017;43.700;11.820;2022-11-14T03:48:47;14.35;;;13.55;;
46282;SDS011;32017;43.700;11.820;2022-11-14T03:51:07;14.02;;;13.55;;
46282;SDS011;32017;43.700;11.820;2022-11-14T03:53:27;15.20;;;14.63;;
46282;SDS011;32017;43.700;11.820;2022-11-14T03:55:47;16.13;;;15.43;;
46282;SDS011;32017;43.700;11.820;2022-11-14T03:58:06;15.02;;;14.43;;
46282;SDS011;32017;43.700;11.820;2022-11-14T04:00:26;11.75;;;11.15;;
46282;SDS011;32017;43.700;11.820;2022-11-14T04:02:46;10.20;;;9.88;;
46282;SDS011;32017;43.700;11.820;2022-11-14T04:05:06;11.35;;;10.98;;
46282;SDS011;32017;43.700;11.820;2022-11-14T04:07:26;12.18;;;11.65;;
46282;SDS011;32017;43.700;11.820;2022-11-14T04:09:46;12.40;;;11.55;;
46282;SDS011;32017;43.700;11.820;2022-11-14T04:12:06;12.75;;;10.32;;
46282;SDS011;32017;43.700;11.820;2022-11-14T04:14:33;343.00;;;23.98;;
46282;SDS011;32017;43.700;11.820;2022-11-14T04:16:52;11.02;;;10.55;;
46282;SDS011;32017;43.700;11.820;2022-11-14T04:19:12;10.30;;;10.05;;
46282;SDS011;32017;43.700;11.820;2022-11-14T04:21:32;9.48;;;8.85;;
46282;SDS011;32017;43.700;11.820;2022-11-14T04:23:52;9.40;;;8.77;;
46282;SDS011;32017;43.700;11.820;2022-11-14T04:26:12;11.00;;;10.45;;
46282;SDS011;32017;43.700;11.820;2022-11-14T04:28:31;10.32;;;10.10;;
46282;SDS011;32017;43.700;11.820;2022-11-14T04:30:51;10.95;;;10.52;;
46282;SDS011;32017;43.700;11.820;2022-11-14T04:33:11;9.48;;;9.27;;
46282;SDS011;32017;43.700;11.820;2022-11-14T04:35:31;11.05;;;10.75;;
46282;SDS011;32017;43.700;11.820;2022-11-14T04:37:50;13.32;;;12.77;;
46282;SDS011;32017;43.700;11.820;2022-11-14T04:40:10;13.02;;;12.52;;
46282;SDS011;32017;43.700;11.820;2022-11-14T04:42:30;22.00;;;16.33;;
46282;SDS011;32017;43.700;11.820;2022-11-14T04:44:50;156.30;;;20.88;;
46282;SDS011;32017;43.700;11.820;2022-11-14T04:47:10;330.77;;;29.15;;
46282;SDS011;32017;43.700;11.820;2022-11-14T04:49:30;290.88;;;28.95;;
46282;SDS011;32017;43.700;11.820;2022-11-14T04:51:50;136.52;;;20.65;;
46282;SDS011;32017;43.700;11.820;2022-11-14T04:54:10;154.00;;;21.00;;
46282;SDS011;32017;43.700;11.820;2022-11-14T04:56:29;217.98;;;20.52;;
46282;SDS011;32017;43.700;11.820;2022-11-14T04:58:49;234.40;;;21.98;;
46282;SDS011;32017;43.700;11.820;2022-11-14T05:01:11;200.68;;;21.77;;
46282;SDS011;32017;43.700;11.820;2022-11-14T05:03:32;143.27;;;24.10;;
46282;SDS011;32017;43.700;11.820;2022-11-14T05:05:52;29.05;;;18.65;;
46282;SDS011;32017;43.700;11.820;2022-11-14T05:08:12;30.50;;;16.48;;
46282;SDS011;32017;43.700;11.820;2022-11-14T05:10:32;21.05;;;16.25;;
46282;SDS011;32017;43.700;11.820;2022-11-14T05:12:52;13.75;;;12.90;;
46282;SDS011;32017;43.700;11.820;2022-11-14T05:15:13;13.48;;;12.77;;
46282;SDS011;32017;43.700;11.820;2022-11-14T05:17:33;12.30;;;11.60;;
46282;SDS011;32017;43.700;11.820;2022-11-14T05:19:53;10.70;;;10.20;;
46282;SDS011;32017;43.700;11.820;2022-11-14T05:22:12;11.93;;;11.43;;
46282;SDS011;32017;43.700;11.820;2022-11-14T05:24:32;10.23;;;9.77;;
46282;SDS011;32017;43.700;11.820;2022-11-14T05:26:51;9.27;;;9.07;;
46282;SDS011;32017;43.700;11.820;2022-11-14T05:29:11;10.57;;;10.25;;
46282;SDS011;32017;43.700;11.820;2022-11-14T05:31:31;8.88;;;8.65;;
46282;SDS011;32017;43.700;11.820;2022-11-14T05:33:51;8.82;;;8.43;;
46282;SDS011;32017;43.700;11.820;2022-11-14T05:36:12;10.88;;;10.48;;
46282;SDS011;32017;43.700;11.820;2022-11-14T05:40:53;9.57;;;9.15;;
46282;SDS011;32017;43.700;11.820;2022-11-14T05:43:13;8.50;;;8.30;;
46282;SDS011;32017;43.700;11.820;2022-11-14T05:45:33;9.70;;;9.40;;
46282;SDS011;32017;43.700;11.820;2022-11-14T05:47:52;11.63;;;11.05;;
46282;SDS011;32017;43.700;11.820;2022-11-14T05:50:12;10.02;;;9.82;;
46282;SDS011;32017;43.700;11.820;2022-11-14T05:52:31;9.88;;;9.40;;
46282;SDS011;32017;43.700;11.820;2022-11-14T05:54:51;9.68;;;9.27;;
46282;SDS011;32017;43.700;11.820;2022-11-14T05:57:11;11.23;;;10.60;;
46282;SDS011;32017;43.700;11.820;2022-11-14T05:59:31;11.88;;;11.25;;
46282;SDS011;32017;43.700;11.820;2022-11-14T06:01:50;12.15;;;11.65;;
46282;SDS011;32017;43.700;11.820;2022-11-14T06:04:10;11.27;;;10.85;;
46282;SDS011;32017;43.700;11.820;2022-11-14T06:06:31;10.80;;;10.45;;
46282;SDS011;32017;43.700;11.820;2022-11-14T06:08:51;11.80;;;11.40;;
46282;SDS011;32017;43.700;11.820;2022-11-14T06:11:16;11.68;;;11.18;;
46282;SDS011;32017;43.700;11.820;2022-11-14T06:13:37;10.15;;;9.85;;
46282;SDS011;32017;43.700;11.820;2022-11-14T06:16:01;10.68;;;10.23;;
46282;SDS011;32017;43.700;11.820;2022-11-14T06:18:23;9.30;;;9.00;;
46282;SDS011;32017;43.700;11.820;2022-11-14T06:20:43;10.50;;;10.20;;
46282;SDS011;32017;43.700;11.820;2022-11-14T06:23:03;10.48;;;10.23;;
46282;SDS011;32017;43.700;11.820;2022-11-14T06:25:22;13.65;;;9.40;;
46282;SDS011;32017;43.700;11.820;2022-11-14T06:27:42;12.32;;;11.82;;
46282;SDS011;32017;43.700;11.820;2022-11-14T06:30:02;11.55;;;11.07;;
46282;SDS011;32017;43.700;11.820;2022-11-14T06:32:22;10.68;;;10.27;;
46282;SDS011;32017;43.700;11.820;2022-11-14T06:34:43;12.15;;;11.55;;
46282;SDS011;32017;43.700;11.820;2022-11-14T06:37:03;11.00;;;10.60;;
46282;SDS011;32017;43.700;11.820;2022-11-14T06:39:23;11.40;;;11.00;;
46282;SDS011;32017;43.700;11.820;2022-11-14T06:41:43;11.75;;;11.40;;
46282;SDS011;32017;43.700;11.820;2022-11-14T06:44:03;12.05;;;11.77;;
46282;SDS011;32017;43.700;11.820;2022-11-14T06:46:26;13.23;;;12.82;;
46282;SDS011;32017;43.700;11.820;2022-11-14T06:48:46;14.95;;;14.50;;
46282;SDS011;32017;43.700;11.820;2022-11-14T06:51:06;11.70;;;11.13;;
46282;SDS011;32017;43.700;11.820;2022-11-14T06:53:28;14.10;;;13.52;;
46282;SDS011;32017;43.700;11.820;2022-11-14T06:55:59;11.45;;;11.05;;
46282;SDS011;32017;43.700;11.820;2022-11-14T06:58:31;10.23;;;9.93;;
46282;SDS011;32017;43.700;11.820;2022-11-14T07:00:52;11.82;;;11.60;;
46282;SDS011;32017;43.700;11.820;2022-11-14T07:03:12;11.60;;;11.00;;
46282;SDS011;32017;43.700;11.820;2022-11-14T07:05:32;14.40;;;13.50;;
46282;SDS011;32017;43.700;11.820;2022-11-14T07:07:52;13.13;;;12.32;;
46282;SDS011;32017;43.700;11.820;2022-11-14T07:10:12;14.48;;;13.98;;
46282;SDS011;32017;43.700;11.820;2022-11-14T07:12:31;13.80;;;13.40;;
46282;SDS011;32017;43.700;11.820;2022-11-14T07:14:51;13.10;;;12.57;;
46282;SDS011;32017;43.700;11.820;2022-11-14T07:17:11;11.63;;;11.13;;
46282;SDS011;32017;43.700;11.820;2022-11-14T07:19:30;14.05;;;13.55;;
46282;SDS011;32017;43.700;11.820;2022-11-14T07:21:50;16.35;;;15.55;;
46282;SDS011;32017;43.700;11.820;2022-11-14T07:24:10;14.32;;;13.48;;
46282;SDS011;32017;43.700;11.820;2022-11-14T07:26:30;15.13;;;13.95;;
46282;SDS011;32017;43.700;11.820;2022-11-14T07:28:50;12.07;;;11.57;;
46282;SDS011;32017;43.700;11.820;2022-11-14T07:31:16;9.40;;;9.23;;
46282;SDS011;32017;43.700;11.820;2022-11-14T07:33:37;7.82;;;7.72;;
46282;SDS011;32017;43.700;11.820;2022-11-14T07:35:58;9.45;;;8.75;;
46282;SDS011;32017;43.700;11.820;2022-11-14T07:38:18;9.15;;;8.95;;
46282;SDS011;32017;43.700;11.820;2022-11-14T07:40:38;9.48;;;9.27;;
46282;SDS011;32017;43.700;11.820;2022-11-14T07:42:58;11.55;;;11.07;;
46282;SDS011;32017;43.700;11.820;2022-11-14T07:45:19;10.95;;;10.55;;
46282;SDS011;32017;43.700;11.820;2022-11-14T07:47:41;9.57;;;9.20;;
46282;SDS011;32017;43.700;11.820;2022-11-14T07:50:00;9.82;;;9.43;;
46282;SDS011;32017;43.700;11.820;2022-11-14T07:52:20;12.18;;;11.77;;
46282;SDS011;32017;43.700;11.820;2022-11-14T07:54:40;12.68;;;12.07;;
46282;SDS011;32017;43.700;11.820;2022-11-14T07:56:59;10.60;;;10.23;;
46282;SDS011;32017;43.700;11.820;2022-11-14T07:59:19;9.70;;;9.15;;
46282;SDS011;32017;43.700;11.820;2022-11-14T08:01:39;10.23;;;9.82;;
46282;SDS011;32017;43.700;11.820;2022-11-14T08:03:59;9.45;;;8.93;;
46282;SDS011;32017;43.700;11.820;2022-11-14T08:06:18;14.27;;;13.50;;
46282;SDS011;32017;43.700;11.820;2022-11-14T08:08:38;11.15;;;10.75;;
46282;SDS011;32017;43.700;11.820;2022-11-14T08:10:59;13.50;;;12.38;;
46282;SDS011;32017;43.700;11.820;2022-11-14T08:13:19;8.80;;;8.60;;
46282;SDS011;32017;43.700;11.820;2022-11-14T08:15:55;13.93;;;12.60;;
46282;SDS011;32017;43.700;11.820;2022-11-14T08:18:15;9.70;;;9.30;;
46282;SDS011;32017;43.700;11.820;2022-11-14T08:20:35;9.55;;;8.88;;
46282;SDS011;32017;43.700;11.820;2022-11-14T08:23:02;10.35;;;9.85;;
46282;SDS011;32017;43.700;11.820;2022-11-14T08:25:23;8.95;;;8.55;;
46282;SDS011;32017;43.700;11.820;2022-11-14T08:27:43;9.40;;;8.90;;
46282;SDS011;32017;43.700;11.820;2022-11-14T08:30:02;11.20;;;10.55;;
46282;SDS011;32017;43.700;11.820;2022-11-14T08:32:22;8.80;;;8.50;;
46282;SDS011;32017;43.700;11.820;2022-11-14T08:34:42;11.85;;;11.05;;
46282;SDS011;32017;43.700;11.820;2022-11-14T08:37:02;10.50;;;10.13;;
46282;SDS011;32017;43.700;11.820;2022-11-14T08:39:22;8.10;;;7.82;;
46282;SDS011;32017;43.700;11.820;2022-11-14T08:41:42;8.70;;;8.50;;
46282;SDS011;32017;43.700;11.820;2022-11-14T08:44:02;8.48;;;8.27;;
46282;SDS011;32017;43.700;11.820;2022-11-14T08:46:22;8.95;;;8.65;;
46282;SDS011;32017;43.700;11.820;2022-11-14T08:48:42;9.63;;;9.10;;
46282;SDS011;32017;43.700;11.820;2022-11-14T08:51:03;8.88;;;8.63;;
46282;SDS011;32017;43.700;11.820;2022-11-14T08:53:24;8.13;;;7.93;;
46282;SDS011;32017;43.700;11.820;2022-11-14T08:55:44;8.50;;;8.20;;
46282;SDS011;32017;43.700;11.820;2022-11-14T08:58:05;9.85;;;9.45;;
46282;SDS011;32017;43.700;11.820;2022-11-14T09:00:25;9.60;;;9.30;;
46282;SDS011;32017;43.700;11.820;2022-11-14T09:02:44;9.52;;;9.30;;
46282;SDS011;32017;43.700;11.820;2022-11-14T09:05:04;9.25;;;8.68;;
46282;SDS011;32017;43.700;11.820;2022-11-14T09:07:24;8.25;;;8.05;;
46282;SDS011;32017;43.700;11.820;2022-11-14T09:09:44;9.90;;;9.30;;
46282;SDS011;32017;43.700;11.820;2022-11-14T09:12:04;18.80;;;16.60;;
46282;SDS011;32017;43.700;11.820;2022-11-14T09:14:24;16.10;;;14.65;;
46282;SDS011;32017;43.700;11.820;2022-11-14T09:16:45;20.00;;;18.25;;
46282;SDS011;32017;43.700;11.820;2022-11-14T09:19:06;19.67;;;17.87;;
46282;SDS011;32017;43.700;11.820;2022-11-14T09:21:26;21.10;;;18.75;;
46282;SDS011;32017;43.700;11.820;2022-11-14T09:23:46;16.17;;;14.55;;
46282;SDS011;32017;43.700;11.820;2022-11-14T09:26:06;13.90;;;13.00;;
46282;SDS011;32017;43.700;11.820;2022-11-14T09:28:27;10.65;;;9.93;;
46282;SDS011;32017;43.700;11.820;2022-11-14T09:30:47;14.35;;;13.52;;
46282;SDS011;32017;43.700;11.820;2022-11-14T09:33:07;16.02;;;14.73;;
46282;SDS011;32017;43.700;11.820;2022-11-14T09:35:31;16.10;;;14.90;;
46282;SDS011;32017;43.700;11.820;2022-11-14T09:38:25;12.55;;;11.75;;
46282;SDS011;32017;43.700;11.820;2022-11-14T09:49:03;14.27;;;13.27;;
46282;SDS011;32017;43.700;11.820;2022-11-14T09:51:38;13.50;;;12.80;;
46282;SDS011;32017;43.700;11.820;2022-11-14T09:56:25;11.70;;;11.10;;
46282;SDS011;32017;43.700;11.820;2022-11-14T09:58:45;11.82;;;10.93;;
46282;SDS011;32017;43.700;11.820;2022-11-14T10:01:07;16.20;;;14.93;;
46282;SDS011;32017;43.700;11.820;2022-11-14T10:09:01;10.38;;;9.77;;
46282;SDS011;32017;43.700;11.820;2022-11-14T10:23:16;9.40;;;8.95;;
46282;SDS011;32017;43.700;11.820;2022-11-14T10:28:47;7.68;;;7.40;;
46282;SDS011;32017;43.700;11.820;2022-11-14T10:39:11;8.75;;;8.35;;
46282;SDS011;32017;43.700;11.820;2022-11-14T10:41:37;8.98;;;8.73;;
46282;SDS011;32017;43.700;11.820;2022-11-14T10:44:20;11.48;;;10.77;;
46282;SDS011;32017;43.700;11.820;2022-11-14T10:46:46;8.93;;;8.50;;
46282;SDS011;32017;43.700;11.820;2022-11-14T10:49:18;8.10;;;7.50;;
46282;SDS011;32017;43.700;11.820;2022-11-14T10:51:41;12.18;;;11.27;;
46282;SDS011;32017;43.700;11.820;2022-11-14T10:56:27;7.63;;;7.43;;
46282;SDS011;32017;43.700;11.820;2022-11-14T10:58:47;7.93;;;7.72;;
46282;SDS011;32017;43.700;11.820;2022-11-14T11:03:54;8.13;;;7.82;;
46282;SDS011;32017;43.700;11.820;2022-11-14T11:06:23;5.90;;;5.80;;
46282;SDS011;32017;43.700;11.820;2022-11-14T11:08:44;7.03;;;6.63;;
46282;SDS011;32017;43.700;11.820;2022-11-14T11:11:23;6.60;;;6.38;;
46282;SDS011;32017;43.700;11.820;2022-11-14T11:13:54;7.18;;;6.97;;
46282;SDS011;32017;43.700;11.820;2022-11-14T11:16:18;5.82;;;5.72;;
46282;SDS011;32017;43.700;11.820;2022-11-14T11:18:40;8.73;;;8.40;;
46282;SDS011;32017;43.700;11.820;2022-11-14T11:21:04;9.52;;;8.98;;
46282;SDS011;32017;43.700;11.820;2022-11-14T11:23:25;7.28;;;6.97;;
46282;SDS011;32017;43.700;11.820;2022-11-14T11:25:50;6.35;;;6.15;;
46282;SDS011;32017;43.700;11.820;2022-11-14T11:28:35;18.38;;;16.80;;
46282;SDS011;32017;43.700;11.820;2022-11-14T11:30:56;10.23;;;9.55;;
46282;SDS011;32017;43.700;11.820;2022-11-14T11:35:41;10.32;;;9.48;;
46282;SDS011;32017;43.700;11.820;2022-11-14T11:38:03;9.10;;;8.60;;
46282;SDS011;32017;43.700;11.820;2022-11-14T11:40:26;6.82;;;6.53;;
46282;SDS011;32017;43.700;11.820;2022-11-14T11:42:55;5.05;;;4.85;;
46282;SDS011;32017;43.700;11.820;2022-11-14T11:45:36;2.03;;;1.92;;
46282;SDS011;32017;43.700;11.820;2022-11-14T11:50:39;2.20;;;2.20;;
46282;SDS011;32017;43.700;11.820;2022-11-14T11:53:03;2.25;;;2.25;;
46282;SDS011;32017;43.700;11.820;2022-11-14T11:55:39;2.80;;;2.70;;
46282;SDS011;32017;43.700;11.820;2022-11-14T11:58:04;2.28;;;2.17;;
46282;SDS011;32017;43.700;11.820;2022-11-14T12:00:30;2.78;;;2.78;;
46282;SDS011;32017;43.700;11.820;2022-11-14T12:02:51;2.25;;;2.25;;
46282;SDS011;32017;43.700;11.820;2022-11-14T12:05:17;3.15;;;2.90;;
46282;SDS011;32017;43.700;11.820;2022-11-14T12:10:28;1.90;;;1.90;;
46282;SDS011;32017;43.700;11.820;2022-11-14T12:15:27;4.35;;;4.25;;
46282;SDS011;32017;43.700;11.820;2022-11-14T12:18:09;4.05;;;3.95;;
46282;SDS011;32017;43.700;11.820;2022-11-14T12:26:25;6.88;;;5.05;;
46282;SDS011;32017;43.700;11.820;2022-11-14T12:30:52;5.10;;;4.78;;
46282;SDS011;32017;43.700;11.820;2022-11-14T12:35:55;2.30;;;2.30;;
46282;SDS011;32017;43.700;11.820;2022-11-14T12:38:17;4.18;;;3.97;;
46282;SDS011;32017;43.700;11.820;2022-11-14T12:40:41;2.80;;;2.70;;
46282;SDS011;32017;43.700;11.820;2022-11-14T12:43:47;7.82;;;7.63;;
46282;SDS011;32017;43.700;11.820;2022-11-14T12:46:03;4.55;;;4.28;;
46282;SDS011;32017;43.700;11.820;2022-11-14T12:48:30;4.85;;;4.75;;
46282;SDS011;32017;43.700;11.820;2022-11-14T12:56:01;4.07;;;3.97;;
46282;SDS011;32017;43.700;11.820;2022-11-14T13:01:05;4.07;;;3.10;;
46282;SDS011;32017;43.700;11.820;2022-11-14T13:06:22;2.70;;;2.50;;
46282;SDS011;32017;43.700;11.820;2022-11-14T13:09:32;2.72;;;2.63;;
46282;SDS011;32017;43.700;11.820;2022-11-14T13:12:18;2.00;;;1.90;;
46282;SDS011;32017;43.700;11.820;2022-11-14T13:18:12;1.90;;;1.77;;
46282;SDS011;32017;43.700;11.820;2022-11-14T13:21:21;1.40;;;1.40;;
46282;SDS011;32017;43.700;11.820;2022-11-14T13:24:04;1.40;;;1.40;;
46282;SDS011;32017;43.700;11.820;2022-11-14T13:28:46;1.58;;;1.58;;
46282;SDS011;32017;43.700;11.820;2022-11-14T13:33:45;2.40;;;2.40;;
46282;SDS011;32017;43.700;11.820;2022-11-14T13:36:09;6.60;;;1.88;;
46282;SDS011;32017;43.700;11.820;2022-11-14T13:46:37;1.70;;;1.70;;
46282;SDS011;32017;43.700;11.820;2022-11-14T13:51:46;1.63;;;1.63;;
46282;SDS011;32017;43.700;11.820;2022-11-14T13:54:10;1.98;;;1.98;;
46282;SDS011;32017;43.700;11.820;2022-11-14T14:04:52;1.77;;;1.77;;
46282;SDS011;32017;43.700;11.820;2022-11-14T14:10:14;2.10;;;2.10;;
46282;SDS011;32017;43.700;11.820;2022-11-14T14:15:19;1.73;;;1.73;;
46282;SDS011;32017;43.700;11.820;2022-11-14T14:25:48;1.77;;;1.77;;
46282;SDS011;32017;43.700;11.820;2022-11-14T14:33:41;1.95;;;1.95;;
46282;SDS011;32017;43.700;11.820;2022-11-14T14:36:03;2.30;;;2.20;;
46282;SDS011;32017;43.700;11.820;2022-11-14T14:38:24;1.65;;;1.65;;
46282;SDS011;32017;43.700;11.820;2022-11-14T14:40:46;2.00;;;2.00;;
46282;SDS011;32017;43.700;11.820;2022-11-14T14:43:06;1.92;;;1.83;;
46282;SDS011;32017;43.700;11.820;2022-11-14T14:45:43;3.20;;;3.10;;
46282;SDS011;32017;43.700;11.820;2022-11-14T14:48:14;2.40;;;2.30;;
46282;SDS011;32017;43.700;11.820;2022-11-14T14:50:47;2.45;;;2.45;;
46282;SDS011;32017;43.700;11.820;2022-11-14T14:53:25;2.25;;;2.25;;
46282;SDS011;32017;43.700;11.820;2022-11-14T14:55:56;3.00;;;3.00;;
46282;SDS011;32017;43.700;11.820;2022-11-14T15:00:49;3.70;;;3.60;;
46282;SDS011;32017;43.700;11.820;2022-11-14T15:03:31;2.72;;;2.67;;
46282;SDS011;32017;43.700;11.820;2022-11-14T15:06:00;1.80;;;1.80;;
46282;SDS011;32017;43.700;11.820;2022-11-14T15:08:21;2.97;;;2.80;;
46282;SDS011;32017;43.700;11.820;2022-11-14T15:10:41;2.53;;;2.53;;
46282;SDS011;32017;43.700;11.820;2022-11-14T15:13:02;2.08;;;2.08;;
46282;SDS011;32017;43.700;11.820;2022-11-14T15:15:23;1.90;;;1.90;;
46282;SDS011;32017;43.700;11.820;2022-11-14T15:17:44;2.47;;;2.47;;
46282;SDS011;32017;43.700;11.820;2022-11-14T15:20:16;2.20;;;2.20;;
46282;SDS011;32017;43.700;11.820;2022-11-14T15:23:16;2.85;;;2.85;;
46282;SDS011;32017;43.700;11.820;2022-11-14T15:25:38;2.90;;;2.80;;
46282;SDS011;32017;43.700;11.820;2022-11-14T15:27:58;2.47;;;2.38;;
46282;SDS011;32017;43.700;11.820;2022-11-14T15:30:20;2.67;;;2.47;;
46282;SDS011;32017;43.700;11.820;2022-11-14T15:32:52;2.88;;;2.88;;
46282;SDS011;32017;43.700;11.820;2022-11-14T15:41:08;4.30;;;4.15;;
46282;SDS011;32017;43.700;11.820;2022-11-14T15:43:51;3.80;;;3.80;;
46282;SDS011;32017;43.700;11.820;2022-11-14T15:46:29;3.70;;;3.70;;
46282;SDS011;32017;43.700;11.820;2022-11-14T15:48:52;3.40;;;3.40;;
46282;SDS011;32017;43.700;11.820;2022-11-14T15:51:12;2.65;;;2.65;;
46282;SDS011;32017;43.700;11.820;2022-11-14T15:53:32;3.47;;;3.38;;
46282;SDS011;32017;43.700;11.820;2022-11-14T15:55:53;4.03;;;3.92;;
46282;SDS011;32017;43.700;11.820;2022-11-14T15:58:13;6.10;;;5.90;;
46282;SDS011;32017;43.700;11.820;2022-11-14T16:00:48;5.43;;;5.03;;
46282;SDS011;32017;43.700;11.820;2022-11-14T16:03:11;5.85;;;5.68;;
46282;SDS011;32017;43.700;11.820;2022-11-14T16:05:34;5.00;;;4.70;;
46282;SDS011;32017;43.700;11.820;2022-11-14T16:07:55;5.03;;;4.82;;
46282;SDS011;32017;43.700;11.820;2022-11-14T16:10:16;5.60;;;5.50;;
46282;SDS011;32017;43.700;11.820;2022-11-14T16:12:37;4.47;;;4.28;;